Time;durP1;ratioP1;P1;durP2;ratioP2;P2;SDS_P1;SDS_P2;PMS_P1;PMS_P2;Temp;Humidity;BMP_temperature;BMP_pressure;BME280_temperature;BME280_humidity;BME280_pressure;Samples;Min_cycle;Max_cycle;Signal;HPM_P1;HPM_P2
2023/03/23 00:01:59;;;;;;;5.43;3.20;;;13.00;98.00;;;;;;5032648;28;20458;-71
2023/03/23 00:04:30;;;;;;;4.13;2.33;;;13.00;98.00;;;;;;5033693;28;20828;-71
2023/03/23 00:07:00;;;;;;;3.00;2.20;;;12.80;98.00;;;;;;5033429;28;20473;-71
2023/03/23 00:09:27;;;;;;;4.10;2.63;;;12.70;98.00;;;;;;5033620;28;20877;-71
2023/03/23 00:11:56;;;;;;;4.90;2.10;;;12.80;98.00;;;;;;5033373;28;20466;-71
2023/03/23 00:14:24;;;;;;;3.73;2.30;;;12.70;98.00;;;;;;5033472;28;20486;-71
2023/03/23 00:16:51;;;;;;;3.27;2.47;;;12.80;98.00;;;;;;5033397;28;20513;-71
2023/03/23 00:19:20;;;;;;;4.10;2.67;;;12.80;98.00;;;;;;5033249;28;20455;-72
2023/03/23 00:21:53;;;;;;;5.33;2.57;;;12.70;98.00;;;;;;5033340;28;20463;-71
2023/03/23 00:24:20;;;;;;;3.23;2.20;;;12.80;98.00;;;;;;5033470;28;20545;-71
2023/03/23 00:26:51;;;;;;;2.50;1.73;;;12.70;98.00;;;;;;5033257;28;20862;-71
2023/03/23 00:29:21;;;;;;;2.10;1.80;;;12.70;98.00;;;;;;5033288;28;20549;-71
2023/03/23 00:31:49;;;;;;;4.83;2.50;;;12.80;98.00;;;;;;5032127;28;20454;-71
2023/03/23 00:34:18;;;;;;;4.43;2.23;;;13.00;98.00;;;;;;5033051;28;20820;-70
2023/03/23 00:36:48;;;;;;;4.23;2.43;;;13.10;98.00;;;;;;5032004;28;20541;-72
2023/03/23 00:39:16;;;;;;;3.43;2.20;;;12.90;98.00;;;;;;5033002;28;20464;-72
2023/03/23 00:41:44;;;;;;;4.07;2.13;;;12.80;98.00;;;;;;5032148;28;20461;-71
2023/03/23 00:44:17;;;;;;;3.90;2.23;;;12.60;98.00;;;;;;5031789;28;20868;-71
2023/03/23 00:46:45;;;;;;;3.80;2.33;;;12.50;98.00;;;;;;5032853;28;20559;-70
2023/03/23 00:49:14;;;;;;;4.20;2.67;;;12.40;98.00;;;;;;5032742;28;20844;-71
2023/03/23 00:51:41;;;;;;;2.63;2.03;;;12.40;98.00;;;;;;5031418;28;20541;-70
2023/03/23 00:54:11;;;;;;;3.20;2.27;;;12.50;98.00;;;;;;5032913;28;20478;-71
2023/03/23 00:56:39;;;;;;;3.57;2.10;;;12.50;98.00;;;;;;5032473;28;20482;-70
2023/03/23 00:59:07;;;;;;;4.57;2.27;;;12.50;98.00;;;;;;5032601;28;20494;-71
2023/03/23 01:01:35;;;;;;;3.37;2.17;;;12.60;98.00;;;;;;5032514;28;20465;-70
2023/03/23 01:04:04;;;;;;;5.90;2.50;;;12.80;98.00;;;;;;5032571;28;20949;-71
2023/03/23 01:06:32;;;;;;;2.90;2.10;;;12.80;98.00;;;;;;5031274;28;20454;-71
2023/03/23 01:09:03;;;;;;;3.13;2.07;;;12.70;98.00;;;;;;5032296;28;20463;-71
2023/03/23 01:11:31;;;;;;;4.13;2.77;;;12.70;98.00;;;;;;5032081;28;20493;-71
2023/03/23 01:13:59;;;;;;;6.83;2.33;;;12.50;98.00;;;;;;5032086;28;20484;-71
2023/03/23 01:16:27;;;;;;;4.80;2.97;;;12.40;98.00;;;;;;5032182;28;20486;-71
2023/03/23 01:18:54;;;;;;;7.23;2.77;;;12.40;98.00;;;;;;5031988;28;20469;-71
2023/03/23 01:21:22;;;;;;;4.43;2.20;;;12.30;98.00;;;;;;5032125;28;20470;-70
2023/03/23 01:23:49;;;;;;;3.60;1.97;;;12.30;98.00;;;;;;5032170;28;20821;-71
2023/03/23 01:26:18;;;;;;;3.77;2.00;;;12.30;98.00;;;;;;5032323;28;20480;-70
2023/03/23 01:28:47;;;;;;;3.13;2.33;;;12.20;98.00;;;;;;5032208;28;20953;-71
2023/03/23 01:31:16;;;;;;;5.40;2.00;;;12.20;98.00;;;;;;5031775;28;20861;-70
2023/03/23 01:33:44;;;;;;;2.57;2.20;;;12.20;98.00;;;;;;5031901;28;20552;-71
2023/03/23 01:36:13;;;;;;;2.60;1.90;;;12.30;98.00;;;;;;5030495;28;20560;-71
2023/03/23 01:38:42;;;;;;;4.03;2.10;;;12.40;98.00;;;;;;5032062;28;20474;-71
2023/03/23 01:41:10;;;;;;;2.83;1.70;;;12.50;98.00;;;;;;5032028;28;20465;-72
2023/03/23 01:43:53;;;;;;;2.40;1.60;;;12.40;98.00;;;;;;5031861;28;20462;-71
2023/03/23 01:46:22;;;;;;;2.47;1.50;;;12.50;98.00;;;;;;5031644;28;20478;-71
2023/03/23 01:48:51;;;;;;;3.53;2.30;;;12.60;98.00;;;;;;5031839;28;20454;-71
2023/03/23 01:51:20;;;;;;;5.10;2.43;;;12.80;98.00;;;;;;5031475;28;20828;-71
2023/03/23 01:53:52;;;;;;;4.30;2.30;;;12.60;98.00;;;;;;5031579;28;20528;-72
2023/03/23 01:56:24;;;;;;;3.40;2.27;;;12.60;98.00;;;;;;5031317;28;21087;-71
2023/03/23 01:58:52;;;;;;;4.27;2.33;;;12.70;98.00;;;;;;5031539;28;20796;-72
2023/03/23 02:01:24;;;;;;;6.33;2.43;;;12.70;98.00;;;;;;5031492;28;20446;-71
2023/03/23 02:03:53;;;;;;;3.20;2.23;;;12.70;98.00;;;;;;5031408;28;20891;-71
2023/03/23 02:06:21;;;;;;;3.20;2.20;;;12.70;98.00;;;;;;5031355;28;20454;-71
2023/03/23 02:08:50;;;;;;;2.63;2.23;;;12.60;98.00;;;;;;5031430;28;20476;-71
2023/03/23 02:11:23;;;;;;;2.90;2.03;;;12.50;98.00;;;;;;5031281;28;20458;-71
2023/03/23 02:13:51;;;;;;;2.43;2.03;;;12.50;98.00;;;;;;5031373;28;20949;-71
2023/03/23 02:16:28;;;;;;;3.83;2.33;;;12.50;98.00;;;;;;5031361;28;20493;-72
2023/03/23 02:19:04;;;;;;;4.70;2.23;;;12.40;98.00;;;;;;5031307;28;21150;-71
2023/03/23 02:22:14;;;;;;;3.00;2.20;;;12.40;98.00;;;;;;5031265;28;20479;-71
2023/03/23 02:25:00;;;;;;;3.33;1.97;;;12.30;98.00;;;;;;5029231;28;20975;-72
2023/03/23 02:28:13;;;;;;;5.80;2.80;;;12.30;98.00;;;;;;5031279;28;20463;-72
2023/03/23 02:31:07;;;;;;;3.33;2.23;;;12.20;98.00;;;;;;4975575;28;20468;-71
2023/03/23 02:33:45;;;;;;;5.40;2.57;;;12.20;98.00;;;;;;5031070;28;20501;-71
2023/03/23 02:36:20;;;;;;;2.73;1.97;;;12.20;98.00;;;;;;5029684;28;20517;-72
2023/03/23 02:38:53;;;;;;;6.97;2.27;;;12.20;98.00;;;;;;5030973;28;20457;-71
2023/03/23 02:41:25;;;;;;;5.83;2.10;;;12.20;98.00;;;;;;5032407;28;20556;-71
2023/03/23 02:43:53;;;;;;;3.63;2.20;;;12.30;98.00;;;;;;5031648;28;20468;-71
2023/03/23 02:46:22;;;;;;;3.33;2.20;;;12.40;98.00;;;;;;5031972;28;20481;-71
2023/03/23 02:48:52;;;;;;;2.80;1.90;;;12.40;98.00;;;;;;5031689;28;20463;-71
2023/03/23 02:51:21;;;;;;;3.27;2.13;;;12.20;98.00;;;;;;5029865;28;20461;-71
2023/03/23 02:53:51;;;;;;;3.60;2.07;;;12.10;98.00;;;;;;5031102;28;20530;-72
2023/03/23 02:56:24;;;;;;;5.47;2.20;;;12.20;98.00;;;;;;5030970;28;21029;-72
2023/03/23 02:58:51;;;;;;;2.13;1.83;;;12.40;98.00;;;;;;5030956;28;20533;-71
2023/03/23 03:01:49;;;;;;;4.50;2.13;;;12.40;98.00;;;;;;5029820;28;20834;-71
2023/03/23 03:04:21;;;;;;;4.60;2.20;;;12.40;98.00;;;;;;5030954;28;20454;-71
2023/03/23 03:07:03;;;;;;;4.97;2.40;;;12.50;98.00;;;;;;5031044;28;20458;-72
2023/03/23 03:09:41;;;;;;;2.17;1.70;;;12.50;98.00;;;;;;5031018;28;20458;-72
2023/03/23 03:12:13;;;;;;;3.47;1.83;;;12.40;98.00;;;;;;5030781;28;20469;-71
2023/03/23 03:14:47;;;;;;;4.33;2.30;;;12.30;98.00;;;;;;5030839;28;20458;-71
2023/03/23 03:17:20;;;;;;;2.40;1.90;;;12.30;98.00;;;;;;5030707;28;21004;-71
2023/03/23 03:19:52;;;;;;;4.47;2.20;;;12.20;98.00;;;;;;5030762;28;20452;-71
2023/03/23 03:22:21;;;;;;;3.77;2.23;;;12.30;98.00;;;;;;5030706;28;20576;-72
2023/03/23 03:24:51;;;;;;;2.50;1.67;;;12.20;98.00;;;;;;5030552;28;20550;-71
2023/03/23 03:27:22;;;;;;;3.83;2.30;;;12.10;98.00;;;;;;5029540;28;20519;-72
2023/03/23 03:29:56;;;;;;;3.80;1.90;;;12.00;98.00;;;;;;5030771;28;20461;-70
2023/03/23 03:32:30;;;;;;;2.63;1.93;;;11.90;98.00;;;;;;5030660;28;20458;-72
2023/03/23 03:35:01;;;;;;;3.90;2.20;;;12.00;98.00;;;;;;5031657;28;20524;-72
2023/03/23 03:37:37;;;;;;;3.73;2.00;;;12.10;98.00;;;;;;5034386;28;20496;-71
2023/03/23 03:40:11;;;;;;;2.50;1.90;;;12.10;98.00;;;;;;5034368;28;20466;-71
2023/03/23 03:42:39;;;;;;;4.70;2.30;;;12.20;98.00;;;;;;5033159;28;20455;-71
2023/03/23 03:45:08;;;;;;;4.50;2.37;;;12.20;98.00;;;;;;5031204;28;20499;-71
2023/03/23 03:47:35;;;;;;;7.30;2.50;;;12.20;98.00;;;;;;5033937;28;20497;-71
2023/03/23 03:50:05;;;;;;;3.43;2.00;;;12.20;98.00;;;;;;5033904;28;20470;-71
2023/03/23 03:52:32;;;;;;;2.77;2.10;;;12.10;98.00;;;;;;5034048;28;20489;-71
2023/03/23 03:55:00;;;;;;;2.63;1.93;;;12.10;98.00;;;;;;5033651;28;20484;-71
2023/03/23 03:57:28;;;;;;;2.67;1.80;;;12.10;98.00;;;;;;5033651;28;20489;-71
2023/03/23 03:59:56;;;;;;;2.80;2.00;;;12.10;98.00;;;;;;5033626;28;20951;-71
2023/03/23 04:02:23;;;;;;;2.77;1.80;;;12.20;98.00;;;;;;5033820;28;20485;-71
2023/03/23 04:04:52;;;;;;;3.83;2.20;;;12.20;98.00;;;;;;5033656;28;21011;-71
2023/03/23 04:07:26;;;;;;;5.50;2.40;;;12.20;98.00;;;;;;5033478;28;20469;-71
2023/03/23 04:09:53;;;;;;;4.93;2.40;;;12.00;98.00;;;;;;5033387;28;20482;-72
2023/03/23 04:12:20;;;;;;;2.13;1.77;;;11.90;98.00;;;;;;5033465;28;20462;-71
2023/03/23 04:14:47;;;;;;;3.93;1.90;;;12.10;98.00;;;;;;5033387;28;20528;-71
2023/03/23 04:17:14;;;;;;;5.53;2.03;;;12.20;98.00;;;;;;5033230;28;20889;-71
2023/03/23 04:19:41;;;;;;;5.13;2.50;;;12.10;98.00;;;;;;5033464;28;20961;-71
2023/03/23 04:22:09;;;;;;;3.03;2.03;;;12.10;98.00;;;;;;5033389;28;20474;-71
2023/03/23 04:24:37;;;;;;;2.60;1.80;;;12.10;98.00;;;;;;5033350;28;20490;-71
2023/03/23 04:27:06;;;;;;;5.33;2.03;;;11.90;98.00;;;;;;5033305;28;20458;-72
2023/03/23 04:29:33;;;;;;;3.33;1.90;;;11.90;98.00;;;;;;5033048;28;20489;-71
2023/03/23 04:32:01;;;;;;;4.77;1.90;;;11.80;98.00;;;;;;5032021;28;20461;-71
2023/03/23 04:34:33;;;;;;;3.33;1.90;;;11.80;98.00;;;;;;5033176;28;20460;-71
2023/03/23 04:37:00;;;;;;;5.27;2.00;;;11.80;98.00;;;;;;5016524;28;20915;-72
2023/03/23 04:39:28;;;;;;;5.27;1.90;;;11.90;98.00;;;;;;5033104;28;20465;-71
2023/03/23 04:42:01;;;;;;;3.80;2.17;;;12.00;98.00;;;;;;5032795;28;20477;-72
2023/03/23 04:44:29;;;;;;;2.37;1.70;;;11.90;98.00;;;;;;5032816;28;20516;-72
2023/03/23 04:46:56;;;;;;;3.10;2.00;;;11.90;98.00;;;;;;5032189;28;20460;-72
2023/03/23 04:49:23;;;;;;;2.10;1.80;;;11.90;98.00;;;;;;5032856;28;20818;-71
2023/03/23 04:51:50;;;;;;;3.50;2.00;;;11.90;98.00;;;;;;5032769;28;20458;-71
2023/03/23 04:54:18;;;;;;;3.40;1.80;;;11.90;98.00;;;;;;5032638;28;20832;-71
2023/03/23 04:56:46;;;;;;;2.53;1.67;;;11.90;98.00;;;;;;5032538;28;20581;-72
2023/03/23 04:59:14;;;;;;;2.63;1.70;;;11.90;98.00;;;;;;5032485;28;20458;-71
2023/03/23 05:01:45;;;;;;;2.40;1.70;;;11.90;98.00;;;;;;5032779;28;20454;-71
2023/03/23 05:04:16;;;;;;;1.90;1.63;;;12.00;98.00;;;;;;5032411;28;20538;-71
2023/03/23 05:06:45;;;;;;;2.90;1.87;;;11.90;98.00;;;;;;5031273;28;20513;-71
2023/03/23 05:09:12;;;;;;;2.43;1.80;;;11.90;98.00;;;;;;5014931;28;20986;-72
2023/03/23 05:11:40;;;;;;;2.10;1.80;;;11.90;98.00;;;;;;5032345;28;20494;-71
2023/03/23 05:14:08;;;;;;;3.03;1.80;;;11.90;98.00;;;;;;5031103;28;21024;-71
2023/03/23 05:16:37;;;;;;;1.93;1.40;;;11.90;98.00;;;;;;5032099;28;20489;-72
2023/03/23 05:19:04;;;;;;;2.70;2.00;;;12.00;98.00;;;;;;5032076;28;20553;-72
2023/03/23 05:21:31;;;;;;;3.40;1.87;;;12.00;98.00;;;;;;5030903;28;20468;-71
2023/03/23 05:24:00;;;;;;;2.23;1.70;;;12.10;98.00;;;;;;5032280;28;20466;-71
2023/03/23 05:26:28;;;;;;;1.60;1.20;;;12.10;98.00;;;;;;5031976;28;20537;-71
2023/03/23 05:28:56;;;;;;;2.90;1.97;;;12.20;98.00;;;;;;5032011;28;20508;-71
2023/03/23 05:31:25;;;;;;;2.77;1.93;;;12.30;98.00;;;;;;5032122;28;20459;-71
2023/03/23 05:33:53;;;;;;;2.43;1.70;;;12.30;98.00;;;;;;5032191;28;20498;-72
2023/03/23 05:36:22;;;;;;;1.90;1.50;;;12.20;98.00;;;;;;5032233;28;20486;-71
2023/03/23 05:38:51;;;;;;;2.70;1.70;;;12.20;98.00;;;;;;5032077;28;20493;-72
2023/03/23 05:41:18;;;;;;;4.10;1.80;;;12.10;98.00;;;;;;5032038;28;20462;-71
2023/03/23 05:43:45;;;;;;;2.50;1.73;;;12.10;98.00;;;;;;5030585;28;20448;-72
2023/03/23 05:46:13;;;;;;;2.53;1.80;;;12.10;98.00;;;;;;5031505;28;20481;-71
2023/03/23 05:48:40;;;;;;;1.63;1.43;;;12.20;98.00;;;;;;5030516;28;20467;-71
2023/03/23 05:51:10;;;;;;;5.60;2.20;;;12.30;98.00;;;;;;5030461;28;20451;-72
2023/03/23 05:53:37;;;;;;;1.70;1.67;;;12.40;98.00;;;;;;5031623;28;20537;-71
2023/03/23 05:56:06;;;;;;;3.00;2.03;;;12.40;98.00;;;;;;5031405;28;20461;-71
2023/03/23 05:58:33;;;;;;;3.07;2.10;;;12.30;98.00;;;;;;5031436;28;20561;-71
2023/03/23 06:01:00;;;;;;;2.30;1.77;;;12.30;98.00;;;;;;5031478;28;20497;-71
2023/03/23 06:03:28;;;;;;;3.53;2.00;;;12.20;98.00;;;;;;5030366;28;20469;-71
2023/03/23 06:05:55;;;;;;;4.30;1.77;;;12.30;98.00;;;;;;5031621;28;20470;-73
2023/03/23 06:08:24;;;;;;;2.37;1.80;;;12.20;98.00;;;;;;5031555;28;20454;-72
2023/03/23 06:10:51;;;;;;;2.50;1.80;;;12.20;98.00;;;;;;5031250;28;20462;-72
2023/03/23 06:13:18;;;;;;;3.70;2.00;;;12.20;98.00;;;;;;5031336;28;20505;-72
2023/03/23 06:15:46;;;;;;;2.73;2.03;;;12.20;98.00;;;;;;5031360;28;20458;-71
2023/03/23 06:18:13;;;;;;;3.23;1.90;;;12.20;98.00;;;;;;5031284;28;20883;-72
2023/03/23 06:20:43;;;;;;;3.53;2.10;;;12.40;98.00;;;;;;5031025;28;20781;-72
2023/03/23 06:23:10;;;;;;;3.23;2.13;;;12.40;98.00;;;;;;5031150;28;20520;-71
2023/03/23 06:25:40;;;;;;;3.63;2.03;;;12.50;98.00;;;;;;5031205;28;20469;-71
2023/03/23 06:28:09;;;;;;;1.87;1.70;;;12.60;98.00;;;;;;5013844;28;20498;-72
2023/03/23 06:30:36;;;;;;;4.30;1.90;;;12.70;98.00;;;;;;5031329;28;20493;-72
2023/03/23 06:33:05;;;;;;;2.80;1.83;;;12.80;98.00;;;;;;5031425;28;20469;-71
2023/03/23 06:35:33;;;;;;;1.80;1.40;;;12.90;98.00;;;;;;5031491;28;20468;-71
2023/03/23 06:38:01;;;;;;;5.20;1.83;;;12.80;98.00;;;;;;5031120;28;20492;-73
2023/03/23 06:40:28;;;;;;;2.30;1.87;;;12.70;98.00;;;;;;5031077;28;20953;-72
2023/03/23 06:43:00;;;;;;;2.53;1.90;;;12.80;98.00;;;;;;5031111;28;20516;-72
2023/03/23 06:45:27;;;;;;;2.53;2.00;;;12.90;98.00;;;;;;5031035;28;20478;-72
2023/03/23 06:47:57;;;;;;;2.20;1.80;;;12.90;98.00;;;;;;5031051;28;20465;-73
2023/03/23 06:50:24;;;;;;;2.80;2.23;;;13.00;98.00;;;;;;5030405;28;20455;-72
2023/03/23 06:52:52;;;;;;;4.63;2.37;;;13.00;98.00;;;;;;5031039;28;20975;-73
2023/03/23 06:55:20;;;;;;;3.30;2.13;;;13.00;98.00;;;;;;5030871;28;20482;-75
2023/03/23 06:57:48;;;;;;;3.27;2.00;;;12.90;98.00;;;;;;5030750;28;20485;-74
2023/03/23 07:00:17;;;;;;;4.10;2.40;;;12.80;98.00;;;;;;5029903;28;20463;-69
2023/03/23 07:02:45;;;;;;;3.87;2.00;;;12.80;98.00;;;;;;5031119;28;20463;-65
2023/03/23 07:05:14;;;;;;;2.80;1.90;;;12.80;98.00;;;;;;5030678;28;20457;-65
2023/03/23 07:07:41;;;;;;;3.57;2.07;;;12.80;98.00;;;;;;5030695;28;20454;-65
2023/03/23 07:10:12;;;;;;;2.70;1.83;;;12.90;98.00;;;;;;5032299;28;20507;-67
2023/03/23 07:12:41;;;;;;;3.60;1.97;;;13.00;98.00;;;;;;5034712;28;20878;-65
2023/03/23 07:15:16;;;;;;;2.50;1.80;;;13.10;98.00;;;;;;5034504;28;21039;-65
2023/03/23 07:17:45;;;;;;;2.73;1.70;;;13.20;98.00;;;;;;5032567;28;20496;-65
2023/03/23 07:20:14;;;;;;;4.70;2.30;;;13.30;98.00;;;;;;5033168;28;20464;-67
2023/03/23 07:22:41;;;;;;;2.27;1.90;;;13.40;98.00;;;;;;5033375;28;21021;-67
2023/03/23 07:25:09;;;;;;;2.33;1.70;;;13.50;98.00;;;;;;5034285;28;20966;-67
2023/03/23 07:27:36;;;;;;;5.43;2.40;;;13.60;98.00;;;;;;5034412;28;20796;-67
2023/03/23 07:30:03;;;;;;;3.60;2.20;;;13.80;98.00;;;;;;5034316;28;20823;-65
2023/03/23 07:32:30;;;;;;;2.50;1.90;;;13.90;98.00;;;;;;5034511;28;20465;-65
2023/03/23 07:34:59;;;;;;;2.23;1.90;;;13.90;98.00;;;;;;5032938;28;20468;-65
2023/03/23 07:37:28;;;;;;;4.00;2.00;;;14.00;98.00;;;;;;5034162;28;20787;-65
2023/03/23 07:39:55;;;;;;;5.10;2.50;;;14.00;98.00;;;;;;5033939;28;20478;-64
2023/03/23 07:42:22;;;;;;;7.13;2.27;;;14.00;98.00;;;;;;5033119;28;20820;-64
2023/03/23 07:44:49;;;;;;;4.43;2.37;;;14.00;98.00;;;;;;5033797;28;20477;-64
2023/03/23 07:47:17;;;;;;;4.27;2.30;;;14.00;98.00;;;;;;5032773;28;20462;-64
2023/03/23 07:49:44;;;;;;;4.70;2.33;;;14.00;98.00;;;;;;5032656;28;20492;-64
2023/03/23 07:52:13;;;;;;;4.67;2.10;;;13.90;98.00;;;;;;5032620;28;20458;-64
2023/03/23 07:54:43;;;;;;;3.10;1.83;;;13.80;98.00;;;;;;5033936;28;20463;-64
2023/03/23 07:57:12;;;;;;;2.50;1.80;;;13.70;98.00;;;;;;5033764;28;20577;-64
2023/03/23 07:59:39;;;;;;;4.17;2.60;;;13.80;98.00;;;;;;5033558;28;20965;-64
2023/03/23 08:02:06;;;;;;;4.43;2.13;;;13.80;98.00;;;;;;5033716;28;20992;-65
2023/03/23 08:04:36;;;;;;;3.07;2.50;;;13.90;98.00;;;;;;5032270;28;20451;-65
2023/03/23 08:07:05;;;;;;;3.60;1.80;;;13.90;98.00;;;;;;5033454;28;20484;-64
2023/03/23 08:09:33;;;;;;;2.73;2.00;;;14.00;98.00;;;;;;5033468;28;20457;-64
2023/03/23 08:12:00;;;;;;;4.43;2.40;;;14.30;98.00;;;;;;5033412;28;20992;-65
2023/03/23 08:14:31;;;;;;;3.97;2.13;;;14.40;98.00;;;;;;5033467;28;20957;-65
2023/03/23 08:16:58;;;;;;;2.17;1.87;;;14.50;98.00;;;;;;5032302;28;20855;-66
2023/03/23 08:19:26;;;;;;;2.57;1.73;;;14.60;98.00;;;;;;5053243;28;20944;-65
2023/03/23 08:21:53;;;;;;;3.87;2.17;;;14.80;98.00;;;;;;5051809;28;20462;-65
2023/03/23 08:24:21;;;;;;;3.20;2.03;;;14.90;98.00;;;;;;5052934;28;20523;-65
2023/03/23 08:26:49;;;;;;;2.83;1.90;;;15.10;98.00;;;;;;5053172;28;20461;-65
2023/03/23 08:29:16;;;;;;;2.83;2.10;;;15.20;98.00;;;;;;5053183;28;20457;-65
2023/03/23 08:31:44;;;;;;;4.93;2.20;;;15.40;98.00;;;;;;5053209;28;20449;-64
2023/03/23 08:34:12;;;;;;;2.53;1.70;;;15.60;98.00;;;;;;5053025;28;20849;-65
2023/03/23 08:36:39;;;;;;;4.40;1.77;;;15.80;98.00;;;;;;5052879;28;20485;-65
2023/03/23 08:39:08;;;;;;;2.87;2.00;;;16.00;98.00;;;;;;5052639;28;21007;-65
2023/03/23 08:41:35;;;;;;;2.63;1.80;;;16.20;98.00;;;;;;5052668;28;20506;-65
2023/03/23 08:44:05;;;;;;;3.23;1.73;;;16.40;98.00;;;;;;5052685;28;20465;-65
2023/03/23 08:46:32;;;;;;;3.23;1.87;;;16.50;98.00;;;;;;5052523;28;20504;-62
2023/03/23 08:48:59;;;;;;;1.50;1.40;;;16.50;98.00;;;;;;5052669;28;20449;-62
2023/03/23 08:51:26;;;;;;;2.83;1.67;;;16.70;98.00;;;;;;5052665;28;20457;-62
2023/03/23 08:53:54;;;;;;;2.13;1.73;;;16.90;98.00;;;;;;5052473;28;20691;-62
2023/03/23 08:56:22;;;;;;;2.43;1.83;;;17.10;98.00;;;;;;5052528;28;20531;-65
2023/03/23 08:58:49;;;;;;;2.80;2.07;;;17.10;98.00;;;;;;5052574;28;20896;-64
2023/03/23 09:01:18;;;;;;;3.80;1.90;;;17.10;98.00;;;;;;5052205;28;20548;-65
2023/03/23 09:03:46;;;;;;;3.27;1.63;;;17.00;98.00;;;;;;5052223;28;20484;-64
2023/03/23 09:06:13;;;;;;;2.43;1.83;;;16.80;98.00;;;;;;5048916;28;20538;-65
2023/03/23 09:08:40;;;;;;;2.87;2.07;;;16.70;98.00;;;;;;5032502;28;20458;-65
2023/03/23 09:11:09;;;;;;;2.37;1.73;;;16.60;98.00;;;;;;5032073;28;20811;-65
2023/03/23 09:13:38;;;;;;;3.77;1.80;;;16.40;98.00;;;;;;5032452;28;20450;-65
2023/03/23 09:16:06;;;;;;;4.07;1.83;;;16.40;98.00;;;;;;5032099;28;20529;-65
2023/03/23 09:18:35;;;;;;;5.57;2.20;;;16.30;98.00;;;;;;5032464;28;20486;-65
2023/03/23 09:21:04;;;;;;;2.33;1.60;;;16.20;98.00;;;;;;5032373;28;20454;-65
2023/03/23 09:23:32;;;;;;;2.90;1.90;;;16.20;98.00;;;;;;5032556;28;20463;-67
2023/03/23 09:26:01;;;;;;;2.80;2.00;;;16.30;98.00;;;;;;5032856;28;20458;-67
2023/03/23 09:28:28;;;;;;;3.43;2.17;;;16.40;98.00;;;;;;5032649;28;20457;-67
2023/03/23 09:30:58;;;;;;;5.10;2.30;;;16.40;98.00;;;;;;5032493;28;20462;-65
2023/03/23 09:33:25;;;;;;;1.97;1.70;;;16.40;98.00;;;;;;5032276;28;20451;-65
2023/03/23 09:35:54;;;;;;;3.40;2.33;;;16.50;98.00;;;;;;5032324;28;20880;-65
2023/03/23 09:38:23;;;;;;;2.40;1.80;;;16.60;98.00;;;;;;5032291;28;20913;-65
2023/03/23 09:40:54;;;;;;;2.33;2.00;;;16.70;98.00;;;;;;5032125;28;20498;-65
2023/03/23 09:43:38;;;;;;;3.00;1.60;;;16.80;98.00;;;;;;5031233;28;20827;-65
2023/03/23 09:46:19;;;;;;;2.17;1.60;;;16.90;98.00;;;;;;5032116;28;20516;-65
2023/03/23 09:48:52;;;;;;;2.70;1.70;;;17.00;98.00;;;;;;5032045;28;20459;-67
2023/03/23 09:51:40;;;;;;;2.60;2.00;;;17.00;98.00;;;;;;5031976;28;20484;-67
2023/03/23 09:54:14;;;;;;;1.90;1.50;;;17.00;98.00;;;;;;5032144;28;20462;-67
2023/03/23 09:56:41;;;;;;;3.03;1.70;;;17.10;98.00;;;;;;5032071;28;20493;-66
2023/03/23 09:59:17;;;;;;;2.50;1.77;;;17.10;98.00;;;;;;5031697;28;20486;-67
2023/03/23 10:01:49;;;;;;;2.60;1.70;;;17.00;98.00;;;;;;5031785;28;20466;-67
2023/03/23 10:04:33;;;;;;;2.60;1.40;;;16.90;98.00;;;;;;5031856;28;20517;-67
2023/03/23 10:07:10;;;;;;;2.87;1.80;;;17.00;98.00;;;;;;5031672;28;20466;-67
2023/03/23 10:09:38;;;;;;;2.60;1.67;;;16.90;98.00;;;;;;5031837;28;20544;-67
2023/03/23 10:12:14;;;;;;;2.13;1.30;;;16.90;98.00;;;;;;5031691;28;20459;-68
2023/03/23 10:14:58;;;;;;;3.03;2.13;;;16.90;98.00;;;;;;5031711;28;20454;-65
2023/03/23 10:17:29;;;;;;;2.70;1.70;;;16.90;98.00;;;;;;5031088;28;20533;-65
2023/03/23 10:20:07;;;;;;;2.23;1.80;;;16.80;98.00;;;;;;5031089;28;20465;-65
2023/03/23 10:22:40;;;;;;;5.80;1.57;;;16.80;98.00;;;;;;5031355;28;21051;-65
2023/03/23 10:25:17;;;;;;;1.40;1.30;;;16.90;98.00;;;;;;5034966;28;20458;-65
2023/03/23 10:27:49;;;;;;;1.70;1.53;;;16.90;98.00;;;;;;5030338;28;20450;-65
2023/03/23 10:30:22;;;;;;;2.87;1.80;;;17.10;98.00;;;;;;5020495;28;20478;-65
2023/03/23 10:32:54;;;;;;;1.93;1.60;;;17.10;98.00;;;;;;5010236;28;20491;-65
2023/03/23 10:35:30;;;;;;;3.60;1.80;;;17.10;98.00;;;;;;5023396;28;20947;-65
2023/03/23 10:38:04;;;;;;;2.97;1.90;;;17.00;98.00;;;;;;5050214;28;20570;-65
2023/03/23 10:40:33;;;;;;;2.40;1.63;;;17.00;98.00;;;;;;5050542;28;20461;-65
2023/03/23 10:43:01;;;;;;;1.90;1.60;;;17.00;98.00;;;;;;5050927;28;20500;-66
2023/03/23 10:45:34;;;;;;;1.43;1.37;;;17.00;98.00;;;;;;5053096;28;20823;-65
2023/03/23 10:48:09;;;;;;;3.07;2.07;;;17.10;98.00;;;;;;5054654;28;20461;-65
2023/03/23 10:50:39;;;;;;;1.87;1.60;;;17.10;98.00;;;;;;5055010;28;20523;-65
2023/03/23 10:53:17;;;;;;;3.10;1.80;;;17.00;98.00;;;;;;5054668;28;20466;-65
2023/03/23 10:55:44;;;;;;;2.90;1.80;;;17.00;98.00;;;;;;5054664;28;20457;-65
2023/03/23 10:58:13;;;;;;;2.13;1.60;;;16.90;98.00;;;;;;5035688;28;20898;-65
2023/03/23 11:00:46;;;;;;;1.63;1.50;;;16.90;98.00;;;;;;5034207;28;20552;-66
2023/03/23 11:03:34;;;;;;;1.90;1.60;;;16.90;98.00;;;;;;5034902;28;20446;-65
2023/03/23 11:06:04;;;;;;;2.27;1.50;;;16.90;98.00;;;;;;5034797;28;20481;-66
2023/03/23 11:08:36;;;;;;;2.00;1.70;;;17.00;98.00;;;;;;5034332;28;20964;-65
2023/03/23 11:11:12;;;;;;;2.33;1.73;;;17.00;98.00;;;;;;5034456;28;20538;-65
2023/03/23 11:13:44;;;;;;;2.50;1.70;;;17.10;98.00;;;;;;5034628;28;20961;-65
2023/03/23 11:16:22;;;;;;;2.63;1.97;;;17.20;98.00;;;;;;5034443;28;20557;-65
2023/03/23 11:18:50;;;;;;;2.00;1.60;;;17.20;98.00;;;;;;5034450;28;20517;-66
2023/03/23 11:21:17;;;;;;;2.23;1.80;;;17.30;98.00;;;;;;5034263;28;20462;-65
2023/03/23 11:23:53;;;;;;;2.90;1.93;;;17.40;98.00;;;;;;5034580;28;20490;-65
2023/03/23 11:26:23;;;;;;;1.60;1.47;;;17.50;98.00;;;;;;5014663;28;20466;-66
2023/03/23 11:28:56;;;;;;;2.60;1.93;;;17.50;98.00;;;;;;5014984;28;20954;-65
2023/03/23 11:31:25;;;;;;;2.40;1.97;;;17.60;98.00;;;;;;5014471;28;20545;-65
2023/03/23 11:33:57;;;;;;;2.10;1.67;;;17.60;98.00;;;;;;5013300;28;20974;-65
2023/03/23 11:36:35;;;;;;;2.67;1.80;;;17.60;98.00;;;;;;5014440;28;20493;-65
2023/03/23 11:39:19;;;;;;;1.87;1.77;;;17.60;98.00;;;;;;5014258;28;20494;-65
2023/03/23 11:41:46;;;;;;;2.70;1.87;;;17.50;98.00;;;;;;5014184;28;20462;-65
2023/03/23 11:44:14;;;;;;;2.63;1.90;;;17.40;98.00;;;;;;5013964;28;20455;-65
2023/03/23 11:46:50;;;;;;;2.30;1.70;;;17.30;98.00;;;;;;5014156;28;20471;-65
2023/03/23 11:49:30;;;;;;;2.37;1.63;;;17.20;98.00;;;;;;5014426;28;20497;-65
2023/03/23 11:52:02;;;;;;;3.10;1.83;;;17.10;98.00;;;;;;5014052;28;20459;-66
2023/03/23 11:54:35;;;;;;;2.87;1.97;;;17.20;98.00;;;;;;5014160;28;20485;-65
2023/03/23 11:57:08;;;;;;;1.93;1.63;;;17.10;98.00;;;;;;5013876;28;20823;-65
2023/03/23 11:59:38;;;;;;;2.70;1.67;;;17.10;98.00;;;;;;5013889;28;21072;-65
2023/03/23 12:02:23;;;;;;;3.53;2.10;;;17.30;98.00;;;;;;5013892;28;20459;-65
2023/03/23 12:05:00;;;;;;;2.20;1.90;;;17.40;98.00;;;;;;5012569;28;20973;-66
2023/03/23 12:07:47;;;;;;;2.77;1.97;;;17.50;98.00;;;;;;5013955;28;20517;-65
2023/03/23 12:10:26;;;;;;;7.13;2.10;;;17.50;98.00;;;;;;5013836;28;20539;-65
2023/03/23 12:13:03;;;;;;;2.80;1.83;;;17.80;98.00;;;;;;5013596;28;20518;-66
2023/03/23 12:15:39;;;;;;;2.90;2.10;;;17.90;98.00;;;;;;5013608;28;20692;-65
2023/03/23 12:18:16;;;;;;;2.33;1.73;;;17.90;98.00;;;;;;5013560;28;20558;-65
2023/03/23 12:20:54;;;;;;;2.20;1.60;;;17.90;98.00;;;;;;5013593;28;20550;-65
2023/03/23 12:23:25;;;;;;;2.87;1.70;;;18.00;98.00;;;;;;5013711;28;20455;-64
2023/03/23 12:26:15;;;;;;;1.80;1.60;;;18.00;98.00;;;;;;5013761;28;20463;-66
2023/03/23 12:28:54;;;;;;;2.70;2.00;;;18.10;98.00;;;;;;5013624;28;20554;-66
2023/03/23 12:31:28;;;;;;;2.93;2.00;;;18.20;98.00;;;;;;5013381;28;20460;-66
2023/03/23 12:34:00;;;;;;;4.47;2.30;;;18.20;98.00;;;;;;5013301;28;20813;-65
2023/03/23 12:36:39;;;;;;;3.30;1.83;;;18.10;98.00;;;;;;5013059;28;20993;-65
2023/03/23 12:39:30;;;;;;;2.50;1.60;;;18.10;98.00;;;;;;5012670;28;20486;-67
2023/03/23 12:42:05;;;;;;;2.63;2.13;;;18.10;98.00;;;;;;5003810;28;20467;-66
2023/03/23 12:44:40;;;;;;;2.10;1.70;;;18.10;98.00;;;;;;5013728;28;20938;-66
2023/03/23 12:47:28;;;;;;;3.23;1.93;;;18.00;98.00;;;;;;5012595;28;20466;-66
2023/03/23 12:50:01;;;;;;;3.07;1.90;;;17.90;98.00;;;;;;5013792;28;20455;-66
2023/03/23 12:52:34;;;;;;;2.40;1.70;;;17.80;98.00;;;;;;5013842;28;20947;-66
2023/03/23 12:55:07;;;;;;;2.30;1.80;;;17.80;98.00;;;;;;5013328;28;20463;-65
2023/03/23 12:57:48;;;;;;;2.57;1.90;;;17.80;98.00;;;;;;5013756;28;20518;-66
2023/03/23 13:00:22;;;;;;;2.63;1.77;;;17.80;98.00;;;;;;5013414;28;20538;-65
2023/03/23 13:02:58;;;;;;;2.70;1.80;;;17.80;98.00;;;;;;5012091;28;20792;-65
2023/03/23 13:05:41;;;;;;;2.37;1.93;;;17.80;98.00;;;;;;5013461;28;20462;-66
2023/03/23 13:08:16;;;;;;;3.47;1.90;;;17.90;98.00;;;;;;5012832;28;20482;-65